createdAt,value
2023-10-03T00:00:43.317Z,13.44
2023-10-03T00:03:14.739Z,13.35
2023-10-03T00:05:46.431Z,13.36
2023-10-03T00:08:14.799Z,13.14
2023-10-03T00:10:42.411Z,13.28
2023-10-03T00:13:12.303Z,13.24
2023-10-03T00:15:45.433Z,13.19
2023-10-03T00:18:13.907Z,13.19
2023-10-03T00:20:43.175Z,13.20
2023-10-03T00:23:10.815Z,13.21
2023-10-03T00:25:39.712Z,12.87
2023-10-03T00:28:08.198Z,12.90
2023-10-03T00:30:37.806Z,12.87
2023-10-03T00:33:06.855Z,12.97
2023-10-03T00:35:35.635Z,13.03
2023-10-03T00:38:08.220Z,13.03
2023-10-03T00:40:37.188Z,13.11
2023-10-03T00:43:04.830Z,13.11
2023-10-03T00:45:33.349Z,12.91
2023-10-03T00:48:03.244Z,13.03
2023-10-03T00:50:36.057Z,13.07
2023-10-03T00:53:10.997Z,13.10
2023-10-03T00:55:40.271Z,12.91
2023-10-03T00:58:19.174Z,12.95
2023-10-03T01:00:50.859Z,13.21
2023-10-03T01:03:38.649Z,13.22
2023-10-03T01:06:10.719Z,12.99
2023-10-03T01:08:43.777Z,13.26
2023-10-03T01:11:25.915Z,13.28
2023-10-03T01:14:01.594Z,13.27
2023-10-03T01:16:37.786Z,13.01
2023-10-03T01:19:28.647Z,13.27
2023-10-03T01:21:56.146Z,13.28
2023-10-03T01:24:26.808Z,13.28
2023-10-03T01:26:56.510Z,13.27
2023-10-03T01:29:24.731Z,13.25
2023-10-03T01:31:53.969Z,13.27
2023-10-03T01:34:21.550Z,13.23
2023-10-03T01:36:49.737Z,13.27
2023-10-03T01:39:17.951Z,13.25
2023-10-03T01:41:46.370Z,13.25
2023-10-03T01:44:16.146Z,13.20
2023-10-03T01:46:44.103Z,13.05
2023-10-03T01:49:11.894Z,13.17
2023-10-03T01:51:39.617Z,13.17
2023-10-03T01:54:07.280Z,12.96
2023-10-03T01:56:35.367Z,13.12
2023-10-03T01:59:03.493Z,13.10
2023-10-03T02:01:34.725Z,13.11
2023-10-03T02:04:03.902Z,13.12
2023-10-03T02:06:31.879Z,13.10
2023-10-03T02:09:01.162Z,13.11
2023-10-03T02:11:29.132Z,13.07
2023-10-03T02:13:56.849Z,13.05
2023-10-03T02:16:24.454Z,13.04
2023-10-03T02:18:53.550Z,13.06
2023-10-03T02:21:21.334Z,13.02
2023-10-03T02:23:49.606Z,12.80
2023-10-03T02:26:18.061Z,13.05
2023-10-03T02:28:46.242Z,12.94
2023-10-03T02:31:16.306Z,12.79
2023-10-03T02:33:45.860Z,12.46
2023-10-03T02:36:16.383Z,12.45
2023-10-03T02:38:45.201Z,12.56
2023-10-03T02:41:14.251Z,12.47
2023-10-03T02:43:48.320Z,12.34
2023-10-03T02:46:16.404Z,12.38
2023-10-03T02:48:45.271Z,12.32
2023-10-03T02:51:15.501Z,12.05
2023-10-03T02:53:44.233Z,12.18
2023-10-03T02:56:16.498Z,12.21
2023-10-03T02:58:44.840Z,12.04
2023-10-03T03:01:13.152Z,12.10
2023-10-03T03:03:40.964Z,12.01
2023-10-03T03:06:13.477Z,11.98
2023-10-03T03:08:45.544Z,11.81
2023-10-03T03:11:14.252Z,11.93
2023-10-03T03:13:42.684Z,12.04
2023-10-03T03:16:13.100Z,12.05
2023-10-03T03:18:42.607Z,12.00
2023-10-03T03:21:16.732Z,11.99
2023-10-03T03:24:01.355Z,11.95
2023-10-03T03:26:39.018Z,12.00
2023-10-03T03:29:21.958Z,12.03
2023-10-03T03:31:51.884Z,12.04
2023-10-03T03:34:20.730Z,11.95
2023-10-03T03:36:51.317Z,11.98
2023-10-03T03:39:21.894Z,11.83
2023-10-03T03:41:50.931Z,11.79
2023-10-03T03:44:20.254Z,11.61
2023-10-03T03:46:48.004Z,11.56
2023-10-03T03:49:15.739Z,11.71
2023-10-03T03:51:43.541Z,11.79
2023-10-03T03:54:13.884Z,11.82
2023-10-03T03:56:42.405Z,11.52
2023-10-03T03:59:11.002Z,11.83
2023-10-03T04:01:38.870Z,11.61
2023-10-03T04:04:08.893Z,11.43
2023-10-03T04:06:37.229Z,11.67
2023-10-03T04:09:09.694Z,11.68
2023-10-03T04:11:38.349Z,11.67
2023-10-03T04:14:08.021Z,11.71
2023-10-03T04:16:44.825Z,11.67
2023-10-03T04:19:13.331Z,11.57
2023-10-03T04:21:43.890Z,11.57
2023-10-03T04:24:17.339Z,11.46
2023-10-03T04:26:45.670Z,11.58
2023-10-03T04:29:15.970Z,11.53
2023-10-03T04:31:45.647Z,11.42
2023-10-03T04:34:17.231Z,11.35
2023-10-03T04:36:46.605Z,11.33
2023-10-03T04:39:15.153Z,11.36
2023-10-03T04:41:45.419Z,11.16
2023-10-03T04:44:18.067Z,10.98
2023-10-03T04:46:47.135Z,11.20
2023-10-03T04:49:15.442Z,11.27
2023-10-03T04:51:47.269Z,11.22
2023-10-03T04:54:17.634Z,11.49
2023-10-03T04:56:46.429Z,11.65
2023-10-03T04:59:14.633Z,11.83
2023-10-03T05:01:43.174Z,12.05
2023-10-03T05:04:13.482Z,12.16
2023-10-03T05:06:41.378Z,12.17
2023-10-03T05:09:09.956Z,11.91
2023-10-03T05:11:37.429Z,12.29
2023-10-03T05:14:05.491Z,12.08
2023-10-03T05:16:35.285Z,12.45
2023-10-03T05:19:03.043Z,12.56
2023-10-03T05:21:33.366Z,12.38
2023-10-03T05:24:01.276Z,12.71
2023-10-03T05:26:28.901Z,12.79
2023-10-03T05:28:57.365Z,12.85
2023-10-03T05:31:25.421Z,12.92
2023-10-03T05:33:53.202Z,12.77
2023-10-03T05:36:20.717Z,13.07
2023-10-03T05:38:48.505Z,13.12
2023-10-03T05:41:24.602Z,13.19
2023-10-03T05:43:53.448Z,13.24
2023-10-03T05:46:21.503Z,13.30
2023-10-03T05:48:51.517Z,13.37
2023-10-03T05:51:22.237Z,13.45
2023-10-03T05:53:51.498Z,13.51
2023-10-03T05:56:21.239Z,13.57
2023-10-03T05:58:51.561Z,13.71
2023-10-03T06:01:19.536Z,14.05
2023-10-03T06:03:47.532Z,14.27
2023-10-03T06:06:15.920Z,14.35
2023-10-03T06:09:02.988Z,14.51
2023-10-03T06:11:48.541Z,14.67
2023-10-03T06:14:17.738Z,14.85
2023-10-03T06:16:45.895Z,15.10
2023-10-03T06:19:13.957Z,14.97
2023-10-03T06:21:42.705Z,15.01
2023-10-03T06:24:10.674Z,15.13
2023-10-03T06:26:38.260Z,15.26
2023-10-03T06:29:05.812Z,15.39
2023-10-03T06:31:33.695Z,15.43
2023-10-03T06:34:02.236Z,15.68
2023-10-03T06:36:34.892Z,15.88
2023-10-03T06:39:10.479Z,15.83
2023-10-03T06:41:39.458Z,16.10
2023-10-03T06:44:07.581Z,16.23
2023-10-03T06:46:36.035Z,16.27
2023-10-03T06:49:03.869Z,16.43
2023-10-03T06:51:31.852Z,16.47
2023-10-03T06:53:59.386Z,16.61
2023-10-03T06:56:27.097Z,16.45
2023-10-03T06:58:55.578Z,16.89
2023-10-03T07:01:23.198Z,16.86
2023-10-03T07:03:50.915Z,17.10
2023-10-03T07:06:19.287Z,17.36
2023-10-03T07:08:47.004Z,17.36
2023-10-03T07:11:17.470Z,17.37
2023-10-03T07:13:45.769Z,17.56
2023-10-03T07:16:13.421Z,17.96
2023-10-03T07:18:41.912Z,17.93
2023-10-03T07:21:09.740Z,18.12
2023-10-03T07:23:40.068Z,18.34
2023-10-03T07:26:08.794Z,18.28
2023-10-03T07:28:39.713Z,18.52
2023-10-03T07:31:15.024Z,18.51
2023-10-03T07:33:46.187Z,18.71
2023-10-03T07:36:14.823Z,18.79
2023-10-03T07:38:42.374Z,19.07
2023-10-03T07:41:10.755Z,19.06
2023-10-03T07:43:38.392Z,19.18
2023-10-03T07:46:05.894Z,19.33
2023-10-03T07:48:34.055Z,19.35
2023-10-03T07:51:06.529Z,19.52
2023-10-03T07:53:37.711Z,19.66
2023-10-03T07:56:05.611Z,19.78
2023-10-03T07:58:33.913Z,20.07
2023-10-03T08:01:01.852Z,19.98
2023-10-03T08:03:29.973Z,19.89
2023-10-03T08:05:59.101Z,19.96
2023-10-03T08:08:26.651Z,19.99
2023-10-03T08:10:54.446Z,20.14
2023-10-03T08:13:24.760Z,20.04
2023-10-03T08:15:52.309Z,20.04
2023-10-03T08:18:20.257Z,20.10
2023-10-03T08:20:55.184Z,20.13
2023-10-03T08:23:23.477Z,20.22
2023-10-03T08:25:50.976Z,20.34
2023-10-03T08:28:21.977Z,20.46
2023-10-03T08:30:51.527Z,20.70
2023-10-03T08:33:21.084Z,20.67
2023-10-03T08:35:49.510Z,20.77
2023-10-03T08:38:20.434Z,20.86
2023-10-03T08:40:51.722Z,20.98
2023-10-03T08:43:27.545Z,21.04
2023-10-03T08:45:58.063Z,20.95
2023-10-03T08:48:30.528Z,21.02
2023-10-03T08:51:02.272Z,21.30
2023-10-03T08:53:30.932Z,21.39
2023-10-03T08:56:04.699Z,21.42
2023-10-03T08:58:33.653Z,21.35
2023-10-03T09:01:02.829Z,21.71
2023-10-03T09:03:51.542Z,21.75
2023-10-03T09:06:24.915Z,21.82
2023-10-03T09:09:10.246Z,21.69
2023-10-03T09:11:39.322Z,21.94
2023-10-03T09:14:07.796Z,22.00
2023-10-03T09:16:42.748Z,22.09
2023-10-03T09:19:12.386Z,22.11
2023-10-03T09:21:40.138Z,22.17
2023-10-03T09:24:11.203Z,22.19
2023-10-03T09:26:48.539Z,22.46
2023-10-03T09:29:31.556Z,22.56
2023-10-03T09:32:14.946Z,22.74
2023-10-03T09:34:43.733Z,22.70
2023-10-03T09:37:12.342Z,22.87
2023-10-03T09:39:41.593Z,22.86
2023-10-03T09:42:17.010Z,22.88
2023-10-03T09:44:46.504Z,23.06
2023-10-03T09:47:14.896Z,23.14
2023-10-03T09:49:42.667Z,23.21
2023-10-03T09:52:19.096Z,23.26
2023-10-03T09:54:46.699Z,23.26
2023-10-03T09:57:18.083Z,23.11
2023-10-03T09:59:50.466Z,23.43
2023-10-03T10:02:37.242Z,23.43
2023-10-03T10:05:21.113Z,23.28
2023-10-03T10:08:07.616Z,23.39
2023-10-03T10:10:38.767Z,23.50
2023-10-03T10:13:22.280Z,23.65
2023-10-03T10:16:02.876Z,23.64
2023-10-03T10:18:45.916Z,23.81
2023-10-03T10:21:41.881Z,23.67
2023-10-03T10:24:21.490Z,23.65
2023-10-03T10:26:50.867Z,23.63
2023-10-03T10:29:22.573Z,23.77
2023-10-03T10:31:59.176Z,23.80
2023-10-03T10:34:34.018Z,23.84
2023-10-03T10:37:04.411Z,23.85
2023-10-03T10:39:50.799Z,23.82
2023-10-03T10:42:21.404Z,23.83
2023-10-03T10:45:16.473Z,23.88
2023-10-03T10:47:46.840Z,23.85
2023-10-03T10:50:21.780Z,23.92
2023-10-03T10:52:58.370Z,24.03
2023-10-03T10:55:27.188Z,24.16
2023-10-03T10:58:14.191Z,24.16
2023-10-03T11:00:42.327Z,24.24
2023-10-03T11:03:10.514Z,24.34
2023-10-03T11:05:49.272Z,24.41
2023-10-03T11:08:19.041Z,24.45
2023-10-03T11:10:55.064Z,24.46
2023-10-03T11:13:23.590Z,24.40
2023-10-03T11:15:52.857Z,24.48
2023-10-03T11:18:31.640Z,24.54
2023-10-03T11:21:04.346Z,24.52
2023-10-03T11:23:33.132Z,24.53
2023-10-03T11:26:02.081Z,24.49
2023-10-03T11:28:30.315Z,24.36
2023-10-03T11:31:07.637Z,24.47
2023-10-03T11:33:48.478Z,24.40
2023-10-03T11:36:16.090Z,24.67
2023-10-03T11:38:48.715Z,24.56
2023-10-03T11:41:35.338Z,24.58
2023-10-03T11:44:03.369Z,24.49
2023-10-03T11:46:47.279Z,24.83
2023-10-03T11:49:16.942Z,24.37
2023-10-03T11:51:45.825Z,24.50
2023-10-03T11:54:21.979Z,24.67
2023-10-03T11:56:49.852Z,24.67
2023-10-03T11:59:18.203Z,24.72
2023-10-03T12:01:50.254Z,24.77
2023-10-03T12:04:19.352Z,24.78
2023-10-03T12:06:47.210Z,24.54
2023-10-03T12:09:19.244Z,24.59
2023-10-03T12:11:51.846Z,24.76
2023-10-03T12:14:23.418Z,24.95
2023-10-03T12:16:53.864Z,24.95
2023-10-03T12:19:21.537Z,24.87
2023-10-03T12:21:49.013Z,24.90
2023-10-03T12:24:16.846Z,25.05
2023-10-03T12:26:44.790Z,25.20
2023-10-03T12:29:12.303Z,25.17
2023-10-03T12:31:40.237Z,25.14
2023-10-03T12:34:07.869Z,25.21
2023-10-03T12:36:35.399Z,25.15
2023-10-03T12:39:07.014Z,25.25
2023-10-03T12:41:34.727Z,25.23
2023-10-03T12:44:02.226Z,25.28
2023-10-03T12:46:30.257Z,24.99
2023-10-03T12:48:57.775Z,25.13
2023-10-03T12:51:25.308Z,25.05
2023-10-03T12:53:53.576Z,25.08
2023-10-03T12:56:21.212Z,25.17
2023-10-03T12:58:48.991Z,25.05
2023-10-03T13:01:16.820Z,25.00
2023-10-03T13:03:48.183Z,24.92
2023-10-03T13:06:16.836Z,25.06
2023-10-03T13:08:44.884Z,24.84
2023-10-03T13:11:14.771Z,24.83
2023-10-03T13:13:43.029Z,24.75
2023-10-03T13:16:10.891Z,24.59
2023-10-03T13:18:40.364Z,24.51
2023-10-03T13:21:08.491Z,24.52
2023-10-03T13:23:36.721Z,24.52
2023-10-03T13:26:04.299Z,24.48
2023-10-03T13:28:32.172Z,24.45
2023-10-03T13:31:00.182Z,24.47
2023-10-03T13:33:27.863Z,24.25
2023-10-03T13:35:55.873Z,24.30
2023-10-03T13:38:23.767Z,24.44
2023-10-03T13:40:52.054Z,24.41
2023-10-03T13:43:20.672Z,24.32
2023-10-03T13:45:49.736Z,24.24
2023-10-03T13:48:18.097Z,24.16
2023-10-03T13:50:48.688Z,24.16
2023-10-03T13:53:21.865Z,24.15
2023-10-03T13:55:49.621Z,24.10
2023-10-03T13:58:17.384Z,24.08
2023-10-03T14:00:44.834Z,24.02
2023-10-03T14:03:19.585Z,23.98
2023-10-03T14:05:47.525Z,23.96
2023-10-03T14:08:15.419Z,23.92
2023-10-03T14:10:46.524Z,23.93
2023-10-03T14:13:14.211Z,23.67
2023-10-03T14:15:42.827Z,23.85
2023-10-03T14:18:12.153Z,23.86
2023-10-03T14:20:40.676Z,23.83
2023-10-03T14:23:12.703Z,23.78
2023-10-03T14:25:41.078Z,23.76
2023-10-03T14:28:10.857Z,23.73
2023-10-03T14:30:40.515Z,23.67
2023-10-03T14:33:10.999Z,23.70
2023-10-03T14:35:40.532Z,23.64
2023-10-03T14:38:08.903Z,23.42
2023-10-03T14:40:37.361Z,23.63
2023-10-03T14:43:05.633Z,23.41
2023-10-03T14:45:33.884Z,23.56
2023-10-03T14:48:01.444Z,23.53
2023-10-03T14:50:29.405Z,23.54
2023-10-03T14:52:56.985Z,23.51
2023-10-03T14:55:24.580Z,23.47
2023-10-03T14:57:53.403Z,23.44
2023-10-03T15:00:23.715Z,23.38
2023-10-03T15:02:52.996Z,23.35
2023-10-03T15:05:20.985Z,23.35
2023-10-03T15:07:49.127Z,23.32
2023-10-03T15:10:17.015Z,23.11
2023-10-03T15:12:44.839Z,23.28
2023-10-03T15:15:13.208Z,23.20
2023-10-03T15:17:40.802Z,23.15
2023-10-03T15:20:12.442Z,23.08
2023-10-03T15:22:40.416Z,23.04
2023-10-03T15:25:08.725Z,22.94
2023-10-03T15:27:36.539Z,22.89
2023-10-03T15:30:07.584Z,22.61
2023-10-03T15:32:35.842Z,22.75
2023-10-03T15:35:07.583Z,22.69
2023-10-03T15:37:36.283Z,22.64
2023-10-03T15:40:04.198Z,22.57
2023-10-03T15:42:31.820Z,22.49
2023-10-03T15:47:37.145Z,22.36
2023-10-03T15:50:05.654Z,22.12
2023-10-03T15:52:33.220Z,22.20
2023-10-03T15:55:01.151Z,22.13
2023-10-03T15:57:29.074Z,21.83
2023-10-03T15:59:56.791Z,21.88
2023-10-03T16:02:24.446Z,21.87
2023-10-03T16:04:53.139Z,21.76
2023-10-03T16:07:20.698Z,21.67
2023-10-03T16:09:50.751Z,21.56
2023-10-03T16:12:20.604Z,21.47
2023-10-03T16:14:48.572Z,21.37
2023-10-03T16:17:17.682Z,21.28
2023-10-03T16:19:47.476Z,21.19
2023-10-03T16:22:15.048Z,21.08
2023-10-03T16:24:42.488Z,21.01
2023-10-03T16:27:10.761Z,20.95
2023-10-03T16:29:38.258Z,20.89
2023-10-03T16:32:05.786Z,20.81
2023-10-03T16:34:33.534Z,20.78
2023-10-03T16:37:02.137Z,20.69
2023-10-03T16:39:29.846Z,20.62
2023-10-03T16:42:01.212Z,20.57
2023-10-03T16:44:28.770Z,20.51
2023-10-03T16:46:56.442Z,20.46
2023-10-03T16:49:24.280Z,20.43
2023-10-03T16:51:52.222Z,20.39
2023-10-03T16:54:20.614Z,20.31
2023-10-03T16:56:49.965Z,20.00
2023-10-03T16:59:18.415Z,20.21
2023-10-03T17:01:48.760Z,20.17
2023-10-03T17:04:17.897Z,20.16
2023-10-03T17:06:48.793Z,20.15
2023-10-03T17:09:18.439Z,19.86
2023-10-03T17:11:48.822Z,20.04
2023-10-03T17:14:16.839Z,20.01
2023-10-03T17:16:44.378Z,19.97
2023-10-03T17:19:12.270Z,19.87
2023-10-03T17:21:41.339Z,19.78
2023-10-03T17:24:08.970Z,19.72
2023-10-03T17:26:37.047Z,19.46
2023-10-03T17:29:11.934Z,19.66
2023-10-03T17:31:42.182Z,19.38
2023-10-03T17:34:14.012Z,19.54
2023-10-03T17:36:42.473Z,19.56
2023-10-03T17:39:12.198Z,19.52
2023-10-03T17:41:40.225Z,19.49
2023-10-03T17:44:08.433Z,19.48
2023-10-03T17:46:36.614Z,19.42
2023-10-03T17:49:06.086Z,19.04
2023-10-03T17:51:33.789Z,19.40
2023-10-03T17:54:02.780Z,19.33
2023-10-03T17:56:30.814Z,19.28
2023-10-03T17:59:01.573Z,19.17
2023-10-03T18:01:30.283Z,18.95
2023-10-03T18:03:58.397Z,19.12
2023-10-03T18:06:26.199Z,19.09
2023-10-03T18:08:54.291Z,18.84
2023-10-03T18:11:22.360Z,19.04
2023-10-03T18:13:50.536Z,19.01
2023-10-03T18:16:19.114Z,18.95
2023-10-03T18:18:47.424Z,18.94
2023-10-03T18:21:15.497Z,18.90
2023-10-03T18:23:45.381Z,18.87
2023-10-03T18:26:13.749Z,18.81
2023-10-03T18:28:41.262Z,18.77
2023-10-03T18:31:20.145Z,18.50
2023-10-03T18:33:48.192Z,18.68
2023-10-03T18:36:19.672Z,18.48
2023-10-03T18:38:48.319Z,18.55
2023-10-03T18:41:16.524Z,18.54
2023-10-03T18:43:44.453Z,18.51
2023-10-03T18:46:14.704Z,18.49
2023-10-03T18:48:42.776Z,18.27
2023-10-03T18:51:10.359Z,18.38
2023-10-03T18:53:40.022Z,18.12
2023-10-03T18:56:11.776Z,18.05
2023-10-03T18:58:41.008Z,18.20
2023-10-03T19:01:16.560Z,18.21
2023-10-03T19:03:45.695Z,18.17
2023-10-03T19:06:16.054Z,18.13
2023-10-03T19:08:44.263Z,18.06
2023-10-03T19:11:18.085Z,18.05
2023-10-03T19:13:46.706Z,18.00
2023-10-03T19:16:18.198Z,17.96
2023-10-03T19:18:46.842Z,17.68
2023-10-03T19:21:15.013Z,17.95
2023-10-03T19:23:44.734Z,17.88
2023-10-03T19:26:12.753Z,17.83
2023-10-03T19:28:41.960Z,17.79
2023-10-03T19:31:10.469Z,17.73
2023-10-03T19:33:39.547Z,17.49
2023-10-03T19:36:13.848Z,17.67
2023-10-03T19:38:43.764Z,17.64
2023-10-03T19:41:13.617Z,17.58
2023-10-03T19:43:43.052Z,17.49
2023-10-03T19:46:18.278Z,17.52
2023-10-03T19:48:46.528Z,17.47
2023-10-03T19:51:17.534Z,17.43
2023-10-03T19:53:46.319Z,17.42
2023-10-03T19:56:17.254Z,17.32
2023-10-03T19:58:46.335Z,17.31
2023-10-03T20:01:26.447Z,17.24
2023-10-03T20:03:54.482Z,17.21
2023-10-03T20:06:24.434Z,17.16
2023-10-03T20:08:53.965Z,17.06
2023-10-03T20:11:21.757Z,17.06
2023-10-03T20:13:49.591Z,17.03
2023-10-03T20:16:17.801Z,16.98
2023-10-03T20:18:49.471Z,16.94
2023-10-03T20:21:18.332Z,16.90
2023-10-03T20:23:46.847Z,16.87
2023-10-03T20:26:16.145Z,16.59
2023-10-03T20:28:44.005Z,16.78
2023-10-03T20:31:11.926Z,16.73
2023-10-03T20:33:40.416Z,16.72
2023-10-03T20:36:14.959Z,16.63
2023-10-03T20:38:43.651Z,16.59
2023-10-03T20:41:14.091Z,16.56
2023-10-03T20:43:42.704Z,16.54
2023-10-03T20:46:14.596Z,16.51
2023-10-03T20:48:43.161Z,16.46
2023-10-03T20:51:22.705Z,16.20
2023-10-03T20:53:50.581Z,16.44
2023-10-03T20:56:18.302Z,16.45
2023-10-03T20:58:47.134Z,16.37
2023-10-03T21:01:14.954Z,16.40
2023-10-03T21:03:48.305Z,16.36
2023-10-03T21:06:15.850Z,16.34
2023-10-03T21:08:44.331Z,16.33
2023-10-03T21:11:16.014Z,16.28
2023-10-03T21:13:44.481Z,16.26
2023-10-03T21:16:13.474Z,15.98
2023-10-03T21:18:41.261Z,16.19
2023-10-03T21:21:12.740Z,16.17
2023-10-03T21:23:43.803Z,16.14
2023-10-03T21:26:12.075Z,16.12
2023-10-03T21:28:43.026Z,15.84
2023-10-03T21:31:10.872Z,16.09
2023-10-03T21:33:38.489Z,16.04
2023-10-03T21:36:07.417Z,16.04
2023-10-03T21:38:35.495Z,16.00
2023-10-03T21:41:03.037Z,15.97
2023-10-03T21:43:30.789Z,15.94
2023-10-03T21:46:01.108Z,15.90
2023-10-03T21:48:29.158Z,15.86
2023-10-03T21:51:09.745Z,15.81
2023-10-03T21:53:37.715Z,15.63
2023-10-03T21:56:09.164Z,15.42
2023-10-03T21:58:37.998Z,15.43
2023-10-03T22:01:07.128Z,15.35
2023-10-03T22:03:38.051Z,15.03
2023-10-03T22:06:05.777Z,15.33
2023-10-03T22:08:33.629Z,15.30
2023-10-03T22:11:01.501Z,15.20
2023-10-03T22:13:29.485Z,15.04
2023-10-03T22:15:57.069Z,15.27
2023-10-03T22:18:25.125Z,15.27
2023-10-03T22:20:53.263Z,15.19
2023-10-03T22:23:21.503Z,15.16
2023-10-03T22:25:49.456Z,15.15
2023-10-03T22:28:17.712Z,15.12
2023-10-03T22:30:47.322Z,15.10
2023-10-03T22:33:15.275Z,14.85
2023-10-03T22:35:43.315Z,15.08
2023-10-03T22:38:10.884Z,15.08
2023-10-03T22:40:38.902Z,15.06
2023-10-03T22:43:08.464Z,15.06
2023-10-03T22:45:36.579Z,15.06
2023-10-03T22:48:04.850Z,15.03
2023-10-03T22:50:33.251Z,14.72
2023-10-03T22:53:00.995Z,14.98
2023-10-03T22:55:31.560Z,14.97
2023-10-03T22:57:59.029Z,14.92
2023-10-03T23:00:26.683Z,14.93
2023-10-03T23:02:54.743Z,14.92
2023-10-03T23:05:22.549Z,14.90
2023-10-03T23:07:50.795Z,14.91
2023-10-03T23:10:18.799Z,14.90
2023-10-03T23:12:46.419Z,14.86
2023-10-03T23:15:15.608Z,14.88
2023-10-03T23:17:43.900Z,14.88
2023-10-03T23:20:16.082Z,14.90
2023-10-03T23:22:44.472Z,14.86
2023-10-03T23:25:15.002Z,14.88
2023-10-03T23:27:42.588Z,14.83
2023-10-03T23:30:12.744Z,14.77
2023-10-03T23:32:40.641Z,14.78
2023-10-03T23:35:08.855Z,14.79
2023-10-03T23:37:36.851Z,14.73
2023-10-03T23:40:14.960Z,14.75
2023-10-03T23:42:45.040Z,14.80
2023-10-03T23:45:14.517Z,14.53
2023-10-03T23:47:43.349Z,14.80
2023-10-03T23:50:14.403Z,14.76
2023-10-03T23:52:42.266Z,14.50
2023-10-03T23:55:14.080Z,14.47
2023-10-03T23:57:45.131Z,14.76
